sensor_id;sensor_type;location;lat;lon;timestamp;temperature;humidity
55828;DHT22;41758;51.992;5.890;2022-12-18T00:03:53;3.40;69.40
55828;DHT22;41758;51.992;5.890;2022-12-18T00:06:19;3.40;69.40
55828;DHT22;41758;51.992;5.890;2022-12-18T00:08:45;3.40;69.50
55828;DHT22;41758;51.992;5.890;2022-12-18T00:11:12;3.30;69.60
55828;DHT22;41758;51.992;5.890;2022-12-18T00:13:38;3.30;69.50
55828;DHT22;41758;51.992;5.890;2022-12-18T00:16:05;3.30;69.60
55828;DHT22;41758;51.992;5.890;2022-12-18T00:18:31;3.30;69.50
55828;DHT22;41758;51.992;5.890;2022-12-18T00:21:02;3.30;69.30
55828;DHT22;41758;51.992;5.890;2022-12-18T00:23:28;3.20;69.20
55828;DHT22;41758;51.992;5.890;2022-12-18T00:25:54;3.20;69.00
55828;DHT22;41758;51.992;5.890;2022-12-18T00:28:20;3.20;69.20
55828;DHT22;41758;51.992;5.890;2022-12-18T00:30:45;3.20;69.20
55828;DHT22;41758;51.992;5.890;2022-12-18T00:33:11;3.20;69.20
55828;DHT22;41758;51.992;5.890;2022-12-18T00:35:37;3.10;69.10
55828;DHT22;41758;51.992;5.890;2022-12-18T00:38:02;3.10;69.10
55828;DHT22;41758;51.992;5.890;2022-12-18T00:40:28;3.00;68.90
55828;DHT22;41758;51.992;5.890;2022-12-18T00:42:54;3.00;69.10
55828;DHT22;41758;51.992;5.890;2022-12-18T00:45:27;3.00;69.20
55828;DHT22;41758;51.992;5.890;2022-12-18T00:47:53;3.00;69.30
55828;DHT22;41758;51.992;5.890;2022-12-18T00:50:18;3.00;69.20
55828;DHT22;41758;51.992;5.890;2022-12-18T00:52:44;3.00;69.40
55828;DHT22;41758;51.992;5.890;2022-12-18T00:55:10;3.00;69.30
55828;DHT22;41758;51.992;5.890;2022-12-18T00:57:35;2.90;69.20
55828;DHT22;41758;51.992;5.890;2022-12-18T01:00:03;3.00;68.70
55828;DHT22;41758;51.992;5.890;2022-12-18T01:02:29;2.90;69.00
55828;DHT22;41758;51.992;5.890;2022-12-18T01:04:55;3.00;69.10
55828;DHT22;41758;51.992;5.890;2022-12-18T01:07:21;2.90;69.10
55828;DHT22;41758;51.992;5.890;2022-12-18T01:09:46;2.90;69.00
55828;DHT22;41758;51.992;5.890;2022-12-18T01:12:12;2.90;68.60
55828;DHT22;41758;51.992;5.890;2022-12-18T01:14:37;2.90;69.20
55828;DHT22;41758;51.992;5.890;2022-12-18T01:17:03;2.90;69.20
55828;DHT22;41758;51.992;5.890;2022-12-18T01:19:31;2.90;69.20
55828;DHT22;41758;51.992;5.890;2022-12-18T01:21:57;2.90;69.30
55828;DHT22;41758;51.992;5.890;2022-12-18T01:24:23;2.90;68.70
55828;DHT22;41758;51.992;5.890;2022-12-18T01:26:49;2.90;68.90
55828;DHT22;41758;51.992;5.890;2022-12-18T01:29:14;2.90;68.90
55828;DHT22;41758;51.992;5.890;2022-12-18T01:31:40;2.90;68.80
55828;DHT22;41758;51.992;5.890;2022-12-18T01:34:06;2.90;68.60
55828;DHT22;41758;51.992;5.890;2022-12-18T01:36:35;2.90;68.70
55828;DHT22;41758;51.992;5.890;2022-12-18T01:39:02;2.80;68.70
55828;DHT22;41758;51.992;5.890;2022-12-18T01:41:29;2.80;68.30
55828;DHT22;41758;51.992;5.890;2022-12-18T01:46:58;2.80;68.30
55828;DHT22;41758;51.992;5.890;2022-12-18T01:49:24;2.80;68.50
55828;DHT22;41758;51.992;5.890;2022-12-18T01:51:50;2.80;68.40
55828;DHT22;41758;51.992;5.890;2022-12-18T01:54:15;2.80;68.90
55828;DHT22;41758;51.992;5.890;2022-12-18T01:56:41;2.80;68.60
55828;DHT22;41758;51.992;5.890;2022-12-18T01:59:07;2.80;68.50
55828;DHT22;41758;51.992;5.890;2022-12-18T02:01:33;2.70;68.60
55828;DHT22;41758;51.992;5.890;2022-12-18T02:17:11;2.70;68.60
55828;DHT22;41758;51.992;5.890;2022-12-18T02:27:41;2.80;69.10
55828;DHT22;41758;51.992;5.890;2022-12-18T02:30:09;2.80;69.00
55828;DHT22;41758;51.992;5.890;2022-12-18T02:32:40;2.80;68.50
55828;DHT22;41758;51.992;5.890;2022-12-18T02:35:10;2.80;67.90
55828;DHT22;41758;51.992;5.890;2022-12-18T02:37:36;2.80;68.50
55828;DHT22;41758;51.992;5.890;2022-12-18T02:40:06;2.80;68.50
55828;DHT22;41758;51.992;5.890;2022-12-18T02:42:35;2.80;68.70
55828;DHT22;41758;51.992;5.890;2022-12-18T02:45:03;2.80;67.80
55828;DHT22;41758;51.992;5.890;2022-12-18T02:47:32;2.80;67.80
55828;DHT22;41758;51.992;5.890;2022-12-18T02:52:32;2.80;67.40
55828;DHT22;41758;51.992;5.890;2022-12-18T02:57:55;2.80;67.20
55828;DHT22;41758;51.992;5.890;2022-12-18T03:00:42;2.80;67.40
55828;DHT22;41758;51.992;5.890;2022-12-18T03:03:14;2.80;67.70
55828;DHT22;41758;51.992;5.890;2022-12-18T03:08:21;2.70;66.90
55828;DHT22;41758;51.992;5.890;2022-12-18T03:10:49;2.70;67.60
55828;DHT22;41758;51.992;5.890;2022-12-18T03:13:19;2.70;67.00
55828;DHT22;41758;51.992;5.890;2022-12-18T03:15:49;2.70;67.40
55828;DHT22;41758;51.992;5.890;2022-12-18T03:18:17;2.70;67.00
55828;DHT22;41758;51.992;5.890;2022-12-18T03:20:45;2.70;66.70
55828;DHT22;41758;51.992;5.890;2022-12-18T03:23:18;2.60;67.20
55828;DHT22;41758;51.992;5.890;2022-12-18T03:25:47;2.60;67.00
55828;DHT22;41758;51.992;5.890;2022-12-18T03:28:15;2.60;67.10
55828;DHT22;41758;51.992;5.890;2022-12-18T03:30:43;2.60;66.80
55828;DHT22;41758;51.992;5.890;2022-12-18T03:33:17;2.60;67.20
55828;DHT22;41758;51.992;5.890;2022-12-18T03:35:47;2.60;66.70
55828;DHT22;41758;51.992;5.890;2022-12-18T03:38:12;2.60;66.80
55828;DHT22;41758;51.992;5.890;2022-12-18T03:40:45;2.60;67.10
55828;DHT22;41758;51.992;5.890;2022-12-18T03:43:25;2.60;67.20
55828;DHT22;41758;51.992;5.890;2022-12-18T03:45:55;2.60;67.90
55828;DHT22;41758;51.992;5.890;2022-12-18T03:50:57;2.50;67.30
55828;DHT22;41758;51.992;5.890;2022-12-18T03:56:07;2.50;68.00
55828;DHT22;41758;51.992;5.890;2022-12-18T03:58:37;2.50;68.30
55828;DHT22;41758;51.992;5.890;2022-12-18T04:01:15;2.40;67.70
55828;DHT22;41758;51.992;5.890;2022-12-18T04:03:43;2.40;68.40
55828;DHT22;41758;51.992;5.890;2022-12-18T04:06:10;2.40;67.90
55828;DHT22;41758;51.992;5.890;2022-12-18T04:08:38;2.40;67.90
55828;DHT22;41758;51.992;5.890;2022-12-18T04:11:06;2.40;67.90
55828;DHT22;41758;51.992;5.890;2022-12-18T04:13:34;2.50;68.20
55828;DHT22;41758;51.992;5.890;2022-12-18T04:16:02;2.40;67.50
55828;DHT22;41758;51.992;5.890;2022-12-18T04:18:28;2.40;67.60
55828;DHT22;41758;51.992;5.890;2022-12-18T04:20:54;2.40;68.20
55828;DHT22;41758;51.992;5.890;2022-12-18T04:23:21;2.40;68.20
55828;DHT22;41758;51.992;5.890;2022-12-18T04:25:47;2.40;68.50
55828;DHT22;41758;51.992;5.890;2022-12-18T04:28:18;2.40;68.00
55828;DHT22;41758;51.992;5.890;2022-12-18T04:30:43;2.40;68.00
55828;DHT22;41758;51.992;5.890;2022-12-18T04:33:10;2.40;68.40
55828;DHT22;41758;51.992;5.890;2022-12-18T04:35:37;2.40;68.30
55828;DHT22;41758;51.992;5.890;2022-12-18T04:38:03;2.40;68.10
55828;DHT22;41758;51.992;5.890;2022-12-18T04:40:30;2.40;68.20
55828;DHT22;41758;51.992;5.890;2022-12-18T04:42:56;2.40;68.50
55828;DHT22;41758;51.992;5.890;2022-12-18T04:45:22;2.40;67.90
55828;DHT22;41758;51.992;5.890;2022-12-18T04:47:47;2.40;68.20
55828;DHT22;41758;51.992;5.890;2022-12-18T04:50:17;2.40;68.30
55828;DHT22;41758;51.992;5.890;2022-12-18T04:52:44;2.40;68.30
55828;DHT22;41758;51.992;5.890;2022-12-18T04:55:12;2.50;67.90
55828;DHT22;41758;51.992;5.890;2022-12-18T04:57:38;2.40;67.80
55828;DHT22;41758;51.992;5.890;2022-12-18T05:00:03;2.50;68.00
55828;DHT22;41758;51.992;5.890;2022-12-18T05:02:31;2.40;67.30
55828;DHT22;41758;51.992;5.890;2022-12-18T05:04:56;2.50;67.80
55828;DHT22;41758;51.992;5.890;2022-12-18T05:07:22;2.50;67.40
55828;DHT22;41758;51.992;5.890;2022-12-18T05:09:47;2.50;67.20
55828;DHT22;41758;51.992;5.890;2022-12-18T05:12:13;2.50;67.80
55828;DHT22;41758;51.992;5.890;2022-12-18T05:14:39;2.50;66.90
55828;DHT22;41758;51.992;5.890;2022-12-18T05:17:04;2.50;67.00
55828;DHT22;41758;51.992;5.890;2022-12-18T05:19:30;2.60;67.30
55828;DHT22;41758;51.992;5.890;2022-12-18T05:21:56;2.60;66.40
55828;DHT22;41758;51.992;5.890;2022-12-18T05:24:21;2.60;67.00
55828;DHT22;41758;51.992;5.890;2022-12-18T05:26:47;2.60;67.50
55828;DHT22;41758;51.992;5.890;2022-12-18T05:29:12;2.60;67.70
55828;DHT22;41758;51.992;5.890;2022-12-18T05:31:38;2.60;67.80
55828;DHT22;41758;51.992;5.890;2022-12-18T05:34:04;2.60;67.70
55828;DHT22;41758;51.992;5.890;2022-12-18T05:36:30;2.60;67.30
55828;DHT22;41758;51.992;5.890;2022-12-18T05:38:56;2.50;67.00
55828;DHT22;41758;51.992;5.890;2022-12-18T05:41:21;2.50;67.30
55828;DHT22;41758;51.992;5.890;2022-12-18T05:43:47;2.60;67.80
55828;DHT22;41758;51.992;5.890;2022-12-18T05:46:13;2.50;67.90
55828;DHT22;41758;51.992;5.890;2022-12-18T05:48:40;2.50;68.00
55828;DHT22;41758;51.992;5.890;2022-12-18T05:51:13;2.50;67.80
55828;DHT22;41758;51.992;5.890;2022-12-18T05:53:40;2.50;67.80
55828;DHT22;41758;51.992;5.890;2022-12-18T05:56:07;2.50;67.80
55828;DHT22;41758;51.992;5.890;2022-12-18T05:58:33;2.50;67.60
55828;DHT22;41758;51.992;5.890;2022-12-18T06:01:05;2.50;68.40
55828;DHT22;41758;51.992;5.890;2022-12-18T06:03:31;2.50;68.50
55828;DHT22;41758;51.992;5.890;2022-12-18T06:05:57;2.50;68.30
55828;DHT22;41758;51.992;5.890;2022-12-18T06:08:22;2.50;67.40
55828;DHT22;41758;51.992;5.890;2022-12-18T06:10:51;2.60;67.40
55828;DHT22;41758;51.992;5.890;2022-12-18T06:13:20;2.50;67.30
55828;DHT22;41758;51.992;5.890;2022-12-18T06:15:46;2.50;68.10
55828;DHT22;41758;51.992;5.890;2022-12-18T06:18:11;2.50;68.40
55828;DHT22;41758;51.992;5.890;2022-12-18T06:20:37;2.50;67.80
55828;DHT22;41758;51.992;5.890;2022-12-18T06:23:05;2.50;67.10
55828;DHT22;41758;51.992;5.890;2022-12-18T06:25:31;2.60;66.70
55828;DHT22;41758;51.992;5.890;2022-12-18T06:27:56;2.60;66.90
55828;DHT22;41758;51.992;5.890;2022-12-18T06:30:22;2.60;67.40
55828;DHT22;41758;51.992;5.890;2022-12-18T06:32:48;2.60;67.50
55828;DHT22;41758;51.992;5.890;2022-12-18T06:35:14;2.60;67.40
55828;DHT22;41758;51.992;5.890;2022-12-18T06:37:39;2.60;67.60
55828;DHT22;41758;51.992;5.890;2022-12-18T06:40:05;2.60;67.10
55828;DHT22;41758;51.992;5.890;2022-12-18T06:42:31;2.60;67.10
55828;DHT22;41758;51.992;5.890;2022-12-18T06:44:57;2.60;66.50
55828;DHT22;41758;51.992;5.890;2022-12-18T06:47:22;2.60;67.70
55828;DHT22;41758;51.992;5.890;2022-12-18T06:49:48;2.60;67.50
55828;DHT22;41758;51.992;5.890;2022-12-18T06:52:17;2.60;67.60
55828;DHT22;41758;51.992;5.890;2022-12-18T06:54:42;2.60;67.50
55828;DHT22;41758;51.992;5.890;2022-12-18T06:57:08;2.50;68.00
55828;DHT22;41758;51.992;5.890;2022-12-18T06:59:34;2.60;67.90
55828;DHT22;41758;51.992;5.890;2022-12-18T07:01:59;2.60;68.00
55828;DHT22;41758;51.992;5.890;2022-12-18T07:04:28;2.60;67.60
55828;DHT22;41758;51.992;5.890;2022-12-18T07:06:55;2.60;68.50
55828;DHT22;41758;51.992;5.890;2022-12-18T07:09:20;2.60;67.90
55828;DHT22;41758;51.992;5.890;2022-12-18T07:11:46;2.60;67.80
55828;DHT22;41758;51.992;5.890;2022-12-18T07:14:11;2.60;67.80
55828;DHT22;41758;51.992;5.890;2022-12-18T07:16:37;2.60;67.60
55828;DHT22;41758;51.992;5.890;2022-12-18T07:19:03;2.60;67.70
55828;DHT22;41758;51.992;5.890;2022-12-18T07:21:28;2.60;68.00
55828;DHT22;41758;51.992;5.890;2022-12-18T07:23:54;2.60;67.80
55828;DHT22;41758;51.992;5.890;2022-12-18T07:26:20;2.60;68.40
55828;DHT22;41758;51.992;5.890;2022-12-18T07:28:46;2.70;68.60
55828;DHT22;41758;51.992;5.890;2022-12-18T07:31:19;2.60;68.00
55828;DHT22;41758;51.992;5.890;2022-12-18T07:33:49;2.60;68.60
55828;DHT22;41758;51.992;5.890;2022-12-18T07:36:15;2.70;68.30
55828;DHT22;41758;51.992;5.890;2022-12-18T07:38:40;2.70;68.70
55828;DHT22;41758;51.992;5.890;2022-12-18T07:41:11;2.70;68.40
55828;DHT22;41758;51.992;5.890;2022-12-18T07:43:42;2.70;68.40
55828;DHT22;41758;51.992;5.890;2022-12-18T07:46:07;2.70;68.00
55828;DHT22;41758;51.992;5.890;2022-12-18T07:48:33;2.80;68.30
55828;DHT22;41758;51.992;5.890;2022-12-18T07:50:59;2.70;67.90
55828;DHT22;41758;51.992;5.890;2022-12-18T07:53:25;2.70;68.30
55828;DHT22;41758;51.992;5.890;2022-12-18T07:55:58;2.80;67.90
55828;DHT22;41758;51.992;5.890;2022-12-18T07:58:24;2.70;67.50
55828;DHT22;41758;51.992;5.890;2022-12-18T08:00:50;2.70;68.60
55828;DHT22;41758;51.992;5.890;2022-12-18T08:03:15;2.80;69.00
55828;DHT22;41758;51.992;5.890;2022-12-18T08:05:41;2.80;68.70
55828;DHT22;41758;51.992;5.890;2022-12-18T08:08:06;2.80;68.40
55828;DHT22;41758;51.992;5.890;2022-12-18T08:10:32;2.80;68.70
55828;DHT22;41758;51.992;5.890;2022-12-18T08:12:58;2.80;68.70
55828;DHT22;41758;51.992;5.890;2022-12-18T08:15:23;2.80;68.50
55828;DHT22;41758;51.992;5.890;2022-12-18T08:17:49;2.80;69.10
55828;DHT22;41758;51.992;5.890;2022-12-18T08:20:15;2.90;69.40
55828;DHT22;41758;51.992;5.890;2022-12-18T08:22:41;2.90;69.50
55828;DHT22;41758;51.992;5.890;2022-12-18T08:25:07;2.90;69.30
55828;DHT22;41758;51.992;5.890;2022-12-18T08:27:33;3.00;69.00
55828;DHT22;41758;51.992;5.890;2022-12-18T08:30:22;3.00;68.90
55828;DHT22;41758;51.992;5.890;2022-12-18T08:36:28;3.10;68.50
55828;DHT22;41758;51.992;5.890;2022-12-18T08:38:54;3.10;69.00
55828;DHT22;41758;51.992;5.890;2022-12-18T08:41:20;3.20;69.00
55828;DHT22;41758;51.992;5.890;2022-12-18T08:43:46;3.20;68.70
55828;DHT22;41758;51.992;5.890;2022-12-18T08:46:32;3.20;68.60
55828;DHT22;41758;51.992;5.890;2022-12-18T08:48:59;3.20;68.50
55828;DHT22;41758;51.992;5.890;2022-12-18T08:51:24;3.30;68.80
55828;DHT22;41758;51.992;5.890;2022-12-18T08:53:50;3.30;69.20
55828;DHT22;41758;51.992;5.890;2022-12-18T08:56:19;3.40;69.30
55828;DHT22;41758;51.992;5.890;2022-12-18T08:58:45;3.40;69.10
55828;DHT22;41758;51.992;5.890;2022-12-18T09:01:14;3.40;69.30
55828;DHT22;41758;51.992;5.890;2022-12-18T09:03:39;3.40;69.50
55828;DHT22;41758;51.992;5.890;2022-12-18T09:06:05;3.50;69.30
55828;DHT22;41758;51.992;5.890;2022-12-18T09:08:31;3.50;68.80
55828;DHT22;41758;51.992;5.890;2022-12-18T09:11:00;3.40;67.40
55828;DHT22;41758;51.992;5.890;2022-12-18T09:13:25;3.50;68.30
55828;DHT22;41758;51.992;5.890;2022-12-18T09:15:52;3.50;68.70
55828;DHT22;41758;51.992;5.890;2022-12-18T09:18:18;3.50;68.10
55828;DHT22;41758;51.992;5.890;2022-12-18T09:20:44;3.50;69.30
55828;DHT22;41758;51.992;5.890;2022-12-18T09:23:11;3.60;69.20
55828;DHT22;41758;51.992;5.890;2022-12-18T09:25:37;3.60;69.20
55828;DHT22;41758;51.992;5.890;2022-12-18T09:28:04;3.70;69.40
55828;DHT22;41758;51.992;5.890;2022-12-18T09:30:30;3.80;70.00
55828;DHT22;41758;51.992;5.890;2022-12-18T09:32:58;3.80;70.20
55828;DHT22;41758;51.992;5.890;2022-12-18T09:35:24;3.90;70.10
55828;DHT22;41758;51.992;5.890;2022-12-18T09:37:50;3.90;70.40
55828;DHT22;41758;51.992;5.890;2022-12-18T09:40:16;4.00;70.80
55828;DHT22;41758;51.992;5.890;2022-12-18T09:42:44;4.10;70.30
55828;DHT22;41758;51.992;5.890;2022-12-18T09:45:12;4.20;70.80
55828;DHT22;41758;51.992;5.890;2022-12-18T09:47:39;4.30;70.60
55828;DHT22;41758;51.992;5.890;2022-12-18T09:50:13;4.30;70.70
55828;DHT22;41758;51.992;5.890;2022-12-18T09:52:47;4.40;70.60
55828;DHT22;41758;51.992;5.890;2022-12-18T09:55:24;4.40;70.60
55828;DHT22;41758;51.992;5.890;2022-12-18T09:57:52;4.50;70.60
55828;DHT22;41758;51.992;5.890;2022-12-18T10:00:20;4.50;70.60
55828;DHT22;41758;51.992;5.890;2022-12-18T10:02:46;4.60;70.70
55828;DHT22;41758;51.992;5.890;2022-12-18T10:08:15;4.60;70.70
55828;DHT22;41758;51.992;5.890;2022-12-18T10:10:52;4.70;70.80
55828;DHT22;41758;51.992;5.890;2022-12-18T10:15:48;4.80;70.80
55828;DHT22;41758;51.992;5.890;2022-12-18T10:18:23;4.80;70.80
55828;DHT22;41758;51.992;5.890;2022-12-18T10:20:56;4.90;70.90
55828;DHT22;41758;51.992;5.890;2022-12-18T10:23:37;5.00;70.70
55828;DHT22;41758;51.992;5.890;2022-12-18T10:26:06;5.00;70.60
55828;DHT22;41758;51.992;5.890;2022-12-18T10:28:33;5.00;70.90
55828;DHT22;41758;51.992;5.890;2022-12-18T10:31:07;5.00;70.90
55828;DHT22;41758;51.992;5.890;2022-12-18T10:33:38;5.10;70.80
55828;DHT22;41758;51.992;5.890;2022-12-18T10:36:03;5.20;70.60
55828;DHT22;41758;51.992;5.890;2022-12-18T10:38:30;5.20;70.80
55828;DHT22;41758;51.992;5.890;2022-12-18T10:40:58;5.30;70.90
55828;DHT22;41758;51.992;5.890;2022-12-18T10:46:19;5.30;70.90
55828;DHT22;41758;51.992;5.890;2022-12-18T10:48:55;5.40;70.80
55828;DHT22;41758;51.992;5.890;2022-12-18T10:51:26;5.30;70.80
55828;DHT22;41758;51.992;5.890;2022-12-18T10:56:21;5.40;71.00
55828;DHT22;41758;51.992;5.890;2022-12-18T10:58:56;5.50;71.10
55828;DHT22;41758;51.992;5.890;2022-12-18T11:01:22;5.60;70.60
55828;DHT22;41758;51.992;5.890;2022-12-18T11:06:21;5.70;71.20
55828;DHT22;41758;51.992;5.890;2022-12-18T11:09:02;5.80;71.10
55828;DHT22;41758;51.992;5.890;2022-12-18T11:11:29;5.80;70.70
55828;DHT22;41758;51.992;5.890;2022-12-18T11:14:02;5.80;70.80
55828;DHT22;41758;51.992;5.890;2022-12-18T11:16:29;5.90;70.80
55828;DHT22;41758;51.992;5.890;2022-12-18T11:19:07;5.90;70.80
55828;DHT22;41758;51.992;5.890;2022-12-18T11:21:38;6.00;70.70
55828;DHT22;41758;51.992;5.890;2022-12-18T11:24:04;6.10;70.70
55828;DHT22;41758;51.992;5.890;2022-12-18T11:26:34;6.10;70.80
55828;DHT22;41758;51.992;5.890;2022-12-18T11:29:10;6.10;70.80
55828;DHT22;41758;51.992;5.890;2022-12-18T11:31:40;6.10;70.70
55828;DHT22;41758;51.992;5.890;2022-12-18T11:36:40;6.30;70.60
55828;DHT22;41758;51.992;5.890;2022-12-18T11:44:59;6.30;70.60
55828;DHT22;41758;51.992;5.890;2022-12-18T11:47:41;6.30;70.60
55828;DHT22;41758;51.992;5.890;2022-12-18T11:50:18;6.40;70.50
55828;DHT22;41758;51.992;5.890;2022-12-18T11:52:44;6.40;70.50
55828;DHT22;41758;51.992;5.890;2022-12-18T11:55:11;6.40;70.30
55828;DHT22;41758;51.992;5.890;2022-12-18T12:00:11;6.40;70.30
55828;DHT22;41758;51.992;5.890;2022-12-18T12:10:20;6.50;70.70
55828;DHT22;41758;51.992;5.890;2022-12-18T12:20:49;6.70;70.30
55828;DHT22;41758;51.992;5.890;2022-12-18T12:25:48;6.60;69.90
55828;DHT22;41758;51.992;5.890;2022-12-18T12:31:09;6.70;70.20
55828;DHT22;41758;51.992;5.890;2022-12-18T12:38:56;6.80;70.40
55828;DHT22;41758;51.992;5.890;2022-12-18T12:41:27;6.80;70.30
55828;DHT22;41758;51.992;5.890;2022-12-18T12:44:16;6.80;70.10
55828;DHT22;41758;51.992;5.890;2022-12-18T12:46:44;6.90;69.90
55828;DHT22;41758;51.992;5.890;2022-12-18T12:49:14;6.90;69.80
55828;DHT22;41758;51.992;5.890;2022-12-18T12:51:49;6.90;69.90
55828;DHT22;41758;51.992;5.890;2022-12-18T12:54:19;7.00;69.60
55828;DHT22;41758;51.992;5.890;2022-12-18T12:56:49;7.10;70.20
55828;DHT22;41758;51.992;5.890;2022-12-18T13:12:27;7.40;69.80
55828;DHT22;41758;51.992;5.890;2022-12-18T13:15:21;7.40;69.90
55828;DHT22;41758;51.992;5.890;2022-12-18T13:17:47;7.40;69.70
55828;DHT22;41758;51.992;5.890;2022-12-18T13:20:14;7.40;69.50
55828;DHT22;41758;51.992;5.890;2022-12-18T13:28:07;7.40;69.30
55828;DHT22;41758;51.992;5.890;2022-12-18T13:35:41;7.50;69.90
55828;DHT22;41758;51.992;5.890;2022-12-18T13:40:55;7.60;69.70
55828;DHT22;41758;51.992;5.890;2022-12-18T13:45:59;7.70;69.50
55828;DHT22;41758;51.992;5.890;2022-12-18T13:48:25;7.80;69.40
55828;DHT22;41758;51.992;5.890;2022-12-18T13:50:53;7.80;69.60
55828;DHT22;41758;51.992;5.890;2022-12-18T13:53:21;7.80;68.80
55828;DHT22;41758;51.992;5.890;2022-12-18T13:55:48;7.80;69.10
55828;DHT22;41758;51.992;5.890;2022-12-18T13:58:14;7.80;68.80
55828;DHT22;41758;51.992;5.890;2022-12-18T14:00:41;7.80;69.00
55828;DHT22;41758;51.992;5.890;2022-12-18T14:03:24;7.80;68.70
55828;DHT22;41758;51.992;5.890;2022-12-18T14:06:07;7.80;67.90
55828;DHT22;41758;51.992;5.890;2022-12-18T14:08:36;7.80;68.50
55828;DHT22;41758;51.992;5.890;2022-12-18T14:11:03;7.80;68.90
55828;DHT22;41758;51.992;5.890;2022-12-18T14:13:39;7.80;68.80
55828;DHT22;41758;51.992;5.890;2022-12-18T14:16:07;7.80;68.50
55828;DHT22;41758;51.992;5.890;2022-12-18T14:18:36;7.80;68.90
55828;DHT22;41758;51.992;5.890;2022-12-18T14:21:04;7.80;69.10
55828;DHT22;41758;51.992;5.890;2022-12-18T14:25:59;7.90;68.40
55828;DHT22;41758;51.992;5.890;2022-12-18T14:28:25;7.80;68.30
55828;DHT22;41758;51.992;5.890;2022-12-18T14:30:51;7.80;68.70
55828;DHT22;41758;51.992;5.890;2022-12-18T14:33:27;7.80;69.00
55828;DHT22;41758;51.992;5.890;2022-12-18T14:35:57;7.90;69.10
55828;DHT22;41758;51.992;5.890;2022-12-18T14:38:26;7.90;69.30
55828;DHT22;41758;51.992;5.890;2022-12-18T14:40:52;8.00;68.90
55828;DHT22;41758;51.992;5.890;2022-12-18T14:43:18;8.00;68.90
55828;DHT22;41758;51.992;5.890;2022-12-18T14:45:44;8.10;69.20
55828;DHT22;41758;51.992;5.890;2022-12-18T14:50:37;8.10;68.90
55828;DHT22;41758;51.992;5.890;2022-12-18T14:53:05;8.00;67.60
55828;DHT22;41758;51.992;5.890;2022-12-18T14:55:34;8.00;67.20
55828;DHT22;41758;51.992;5.890;2022-12-18T14:58:00;7.90;67.70
55828;DHT22;41758;51.992;5.890;2022-12-18T15:00:25;7.80;68.10
55828;DHT22;41758;51.992;5.890;2022-12-18T15:02:52;7.80;68.50
55828;DHT22;41758;51.992;5.890;2022-12-18T15:05:20;7.80;68.60
55828;DHT22;41758;51.992;5.890;2022-12-18T15:07:47;7.80;68.40
55828;DHT22;41758;51.992;5.890;2022-12-18T15:12:44;7.80;68.30
55828;DHT22;41758;51.992;5.890;2022-12-18T15:17:58;7.70;68.50
55828;DHT22;41758;51.992;5.890;2022-12-18T15:20:23;7.60;68.80
55828;DHT22;41758;51.992;5.890;2022-12-18T15:22:49;7.60;68.80
55828;DHT22;41758;51.992;5.890;2022-12-18T15:25:26;7.60;68.90
55828;DHT22;41758;51.992;5.890;2022-12-18T15:27:53;7.60;68.80
55828;DHT22;41758;51.992;5.890;2022-12-18T15:30:22;7.60;69.00
55828;DHT22;41758;51.992;5.890;2022-12-18T15:32:48;7.60;68.60
55828;DHT22;41758;51.992;5.890;2022-12-18T15:35:16;7.60;68.40
55828;DHT22;41758;51.992;5.890;2022-12-18T15:37:42;7.60;68.40
55828;DHT22;41758;51.992;5.890;2022-12-18T15:40:11;7.60;68.60
55828;DHT22;41758;51.992;5.890;2022-12-18T15:42:37;7.60;68.60
55828;DHT22;41758;51.992;5.890;2022-12-18T15:45:21;7.60;68.40
55828;DHT22;41758;51.992;5.890;2022-12-18T15:47:47;7.60;67.80
55828;DHT22;41758;51.992;5.890;2022-12-18T15:50:12;7.60;68.20
55828;DHT22;41758;51.992;5.890;2022-12-18T15:52:42;7.60;68.60
55828;DHT22;41758;51.992;5.890;2022-12-18T15:55:10;7.60;68.60
55828;DHT22;41758;51.992;5.890;2022-12-18T15:57:58;7.60;68.50
55828;DHT22;41758;51.992;5.890;2022-12-18T16:00:24;7.60;68.50
55828;DHT22;41758;51.992;5.890;2022-12-18T16:02:50;7.60;68.50
55828;DHT22;41758;51.992;5.890;2022-12-18T16:05:16;7.60;68.30
55828;DHT22;41758;51.992;5.890;2022-12-18T16:07:42;7.60;68.40
55828;DHT22;41758;51.992;5.890;2022-12-18T16:10:08;7.60;68.60
55828;DHT22;41758;51.992;5.890;2022-12-18T16:12:34;7.60;68.70
55828;DHT22;41758;51.992;5.890;2022-12-18T16:14:59;7.60;68.60
55828;DHT22;41758;51.992;5.890;2022-12-18T16:17:25;7.60;68.60
55828;DHT22;41758;51.992;5.890;2022-12-18T16:19:51;7.60;68.50
55828;DHT22;41758;51.992;5.890;2022-12-18T16:22:20;7.70;68.60
55828;DHT22;41758;51.992;5.890;2022-12-18T16:24:47;7.70;68.50
55828;DHT22;41758;51.992;5.890;2022-12-18T16:27:13;7.70;68.30
55828;DHT22;41758;51.992;5.890;2022-12-18T16:29:38;7.70;68.40
55828;DHT22;41758;51.992;5.890;2022-12-18T16:32:04;7.70;68.40
55828;DHT22;41758;51.992;5.890;2022-12-18T16:34:30;7.60;68.10
55828;DHT22;41758;51.992;5.890;2022-12-18T16:37:03;7.60;68.10
55828;DHT22;41758;51.992;5.890;2022-12-18T16:39:29;7.60;68.50
55828;DHT22;41758;51.992;5.890;2022-12-18T16:41:55;7.60;68.40
55828;DHT22;41758;51.992;5.890;2022-12-18T16:44:21;7.50;68.30
55828;DHT22;41758;51.992;5.890;2022-12-18T16:46:47;7.50;68.30
55828;DHT22;41758;51.992;5.890;2022-12-18T16:49:13;7.40;68.50
55828;DHT22;41758;51.992;5.890;2022-12-18T16:51:39;7.40;68.30
55828;DHT22;41758;51.992;5.890;2022-12-18T16:54:09;7.40;68.30
55828;DHT22;41758;51.992;5.890;2022-12-18T16:56:34;7.30;68.60
55828;DHT22;41758;51.992;5.890;2022-12-18T16:59:00;7.40;68.10
55828;DHT22;41758;51.992;5.890;2022-12-18T17:01:27;7.30;68.40
55828;DHT22;41758;51.992;5.890;2022-12-18T17:03:55;7.30;68.20
55828;DHT22;41758;51.992;5.890;2022-12-18T17:06:21;7.30;68.30
55828;DHT22;41758;51.992;5.890;2022-12-18T17:08:47;7.20;68.00
55828;DHT22;41758;51.992;5.890;2022-12-18T17:11:13;7.20;68.40
55828;DHT22;41758;51.992;5.890;2022-12-18T17:13:39;7.20;68.40
55828;DHT22;41758;51.992;5.890;2022-12-18T17:16:05;7.30;68.70
55828;DHT22;41758;51.992;5.890;2022-12-18T17:18:32;7.30;68.90
55828;DHT22;41758;51.992;5.890;2022-12-18T17:20:58;7.30;69.00
55828;DHT22;41758;51.992;5.890;2022-12-18T17:23:28;7.40;69.10
55828;DHT22;41758;51.992;5.890;2022-12-18T17:25:54;7.40;68.70
55828;DHT22;41758;51.992;5.890;2022-12-18T17:28:21;7.50;68.50
55828;DHT22;41758;51.992;5.890;2022-12-18T17:30:47;7.50;68.40
55828;DHT22;41758;51.992;5.890;2022-12-18T17:33:15;7.50;68.40
55828;DHT22;41758;51.992;5.890;2022-12-18T17:35:41;7.60;68.30
55828;DHT22;41758;51.992;5.890;2022-12-18T17:38:07;7.60;68.30
55828;DHT22;41758;51.992;5.890;2022-12-18T17:40:33;7.60;68.40
55828;DHT22;41758;51.992;5.890;2022-12-18T17:42:59;7.50;68.00
55828;DHT22;41758;51.992;5.890;2022-12-18T17:45:25;7.60;67.90
55828;DHT22;41758;51.992;5.890;2022-12-18T17:47:51;7.60;68.20
55828;DHT22;41758;51.992;5.890;2022-12-18T17:50:16;7.60;68.30
55828;DHT22;41758;51.992;5.890;2022-12-18T17:52:42;7.50;68.50
55828;DHT22;41758;51.992;5.890;2022-12-18T17:55:08;7.60;68.60
55828;DHT22;41758;51.992;5.890;2022-12-18T17:57:34;7.60;68.40
55828;DHT22;41758;51.992;5.890;2022-12-18T18:00:01;7.70;68.80
55828;DHT22;41758;51.992;5.890;2022-12-18T18:02:27;7.90;71.10